Time;durP1;ratioP1;P1;durP2;ratioP2;P2;SDS_P1;SDS_P2;PMS_P1;PMS_P2;Temp;Humidity;BMP_temperature;BMP_pressure;BME280_temperature;BME280_humidity;BME280_pressure;Samples;Min_cycle;Max_cycle;Signal;HPM_P1;HPM_P2
2021/04/07 00:01:41;;;;;;;7.43;1.80;;;0.30;99.90;;;;;;4991021;28;20216;-77
2021/04/07 00:04:07;;;;;;;7.47;1.97;;;0.40;99.90;;;;;;4991448;28;20728;-76
2021/04/07 00:06:35;;;;;;;9.07;1.90;;;0.30;99.90;;;;;;4991306;28;20235;-76
2021/04/07 00:09:02;;;;;;;5.30;1.73;;;0.20;99.90;;;;;;4991252;28;20218;-77
2021/04/07 00:11:27;;;;;;;3.63;1.73;;;0.20;99.90;;;;;;4991002;28;20177;-75
2021/04/07 00:13:53;;;;;;;6.53;2.10;;;0.20;99.90;;;;;;4974941;28;20671;-76
2021/04/07 00:16:18;;;;;;;5.77;1.70;;;0.30;99.90;;;;;;4991103;28;20211;-76
2021/04/07 00:18:44;;;;;;;5.43;1.87;;;0.20;99.90;;;;;;4991164;28;20191;-77
2021/04/07 00:21:09;;;;;;;7.47;2.10;;;0.20;99.90;;;;;;4990949;28;20254;-75
2021/04/07 00:23:35;;;;;;;5.30;2.27;;;0.30;99.90;;;;;;4990701;28;20234;-76
2021/04/07 00:26:00;;;;;;;2.97;1.70;;;0.30;99.90;;;;;;4991012;28;20208;-75
2021/04/07 00:28:26;;;;;;;6.27;2.00;;;0.30;99.90;;;;;;4990991;28;20552;-75
2021/04/07 00:30:51;;;;;;;9.80;2.00;;;0.20;99.90;;;;;;4976017;28;20583;-77
2021/04/07 00:33:17;;;;;;;5.53;2.00;;;0.20;99.90;;;;;;4990984;28;20596;-77
2021/04/07 00:35:43;;;;;;;6.63;2.43;;;0.10;99.90;;;;;;4974311;28;20200;-76
2021/04/07 00:38:10;;;;;;;5.20;1.90;;;0.00;99.90;;;;;;4975809;28;20180;-77
2021/04/07 00:40:36;;;;;;;9.43;2.20;;;0.20;99.90;;;;;;4974422;28;20195;-75
2021/04/07 00:43:02;;;;;;;5.53;1.80;;;0.10;99.90;;;;;;4975502;28;20275;-77
2021/04/07 00:45:27;;;;;;;9.67;1.90;;;0.20;99.90;;;;;;4990304;28;20231;-76
2021/04/07 00:47:54;;;;;;;8.63;1.73;;;0.10;99.90;;;;;;4974214;28;20642;-75
2021/04/07 00:50:21;;;;;;;7.73;2.07;;;0.10;99.90;;;;;;4990336;28;20278;-76
2021/04/07 00:52:47;;;;;;;11.97;2.17;;;0.20;99.90;;;;;;4990452;28;20590;-76
2021/04/07 00:55:13;;;;;;;5.47;1.70;;;0.20;99.90;;;;;;4990588;28;20199;-75
2021/04/07 00:57:42;;;;;;;8.77;2.23;;;0.10;99.90;;;;;;4973965;28;20194;-76
2021/04/07 01:00:09;;;;;;;4.63;1.60;;;0.00;99.90;;;;;;4990149;28;20180;-76
2021/04/07 01:02:34;;;;;;;6.63;1.50;;;0.10;99.90;;;;;;4990276;28;20196;-76
2021/04/07 01:05:00;;;;;;;4.63;1.63;;;0.00;99.90;;;;;;4974010;28;20200;-77
2021/04/07 01:07:25;;;;;;;4.83;1.70;;;0.20;99.90;;;;;;4990147;28;20213;-76
2021/04/07 01:09:51;;;;;;;4.97;1.90;;;0.10;99.90;;;;;;4973716;28;20220;-77
2021/04/07 01:12:16;;;;;;;3.80;1.53;;;0.20;99.90;;;;;;4990068;28;20265;-77
2021/04/07 01:14:42;;;;;;;5.23;1.40;;;0.10;99.90;;;;;;4990355;28;20285;-76
2021/04/07 01:17:08;;;;;;;3.47;1.47;;;0.10;99.90;;;;;;4990029;28;20230;-77
2021/04/07 01:19:34;;;;;;;9.63;2.00;;;0.20;99.90;;;;;;4989641;28;20635;-75
2021/04/07 01:21:59;;;;;;;7.10;1.90;;;0.20;99.90;;;;;;4989773;28;20178;-76
2021/04/07 01:24:25;;;;;;;7.20;1.63;;;0.20;99.90;;;;;;4989800;28;20297;-75
2021/04/07 01:26:51;;;;;;;9.43;1.90;;;0.20;99.90;;;;;;4973693;28;20226;-76
2021/04/07 01:29:16;;;;;;;7.57;2.00;;;0.20;99.90;;;;;;4973355;28;20587;-75
2021/04/07 01:31:52;;;;;;;9.30;1.93;;;0.20;99.90;;;;;;4989770;28;20207;-76
2021/04/07 01:34:21;;;;;;;4.83;1.73;;;0.20;99.90;;;;;;4989178;28;20665;-76
2021/04/07 01:36:47;;;;;;;5.97;2.00;;;0.20;99.90;;;;;;4973523;28;20535;-74
2021/04/07 01:39:12;;;;;;;6.37;1.70;;;0.20;99.90;;;;;;4973508;28;20194;-75
2021/04/07 01:41:38;;;;;;;7.57;2.23;;;0.10;99.90;;;;;;4989574;28;20521;-76
2021/04/07 01:44:05;;;;;;;8.57;2.50;;;0.20;99.90;;;;;;4989043;28;20286;-76
2021/04/07 01:46:31;;;;;;;4.80;2.00;;;0.10;99.90;;;;;;4973038;28;20193;-76
2021/04/07 01:48:56;;;;;;;8.77;1.90;;;0.20;99.90;;;;;;4973145;28;20225;-76
2021/04/07 01:51:22;;;;;;;5.00;2.27;;;0.10;99.90;;;;;;4989151;28;20271;-75
2021/04/07 01:53:47;;;;;;;9.47;2.80;;;0.20;99.90;;;;;;4988620;28;20174;-75
2021/04/07 01:56:13;;;;;;;11.77;2.87;;;0.10;99.90;;;;;;4989353;28;20191;-76
2021/04/07 01:58:39;;;;;;;8.60;2.60;;;0.10;99.90;;;;;;4989282;28;20657;-76
2021/04/07 02:01:04;;;;;;;5.80;2.30;;;0.20;99.90;;;;;;4988909;28;20560;-76
2021/04/07 02:03:30;;;;;;;6.43;2.20;;;0.20;99.90;;;;;;4972750;28;20194;-74
2021/04/07 02:05:56;;;;;;;8.80;2.60;;;0.20;99.90;;;;;;4989055;28;20187;-74
2021/04/07 02:08:21;;;;;;;7.97;2.37;;;0.10;99.90;;;;;;4972717;28;20274;-76
2021/04/07 02:10:47;;;;;;;6.77;2.30;;;-0.60;99.90;;;;;;4972959;28;20187;-76
2021/04/07 02:13:12;;;;;;;9.00;2.57;;;-0.50;99.90;;;;;;4972635;28;20182;-75
2021/04/07 02:15:38;;;;;;;10.70;3.10;;;0.20;99.90;;;;;;4988836;28;20331;-75
2021/04/07 02:18:03;;;;;;;5.90;2.67;;;0.40;99.90;;;;;;4988718;28;20217;-77
2021/04/07 02:20:29;;;;;;;8.40;3.30;;;0.40;99.90;;;;;;4988984;28;20183;-76
2021/04/07 02:22:54;;;;;;;8.53;3.20;;;0.30;99.90;;;;;;4972384;28;20177;-75
2021/04/07 02:25:20;;;;;;;8.30;2.37;;;-0.20;99.90;;;;;;4973628;28;20214;-77
2021/04/07 02:27:46;;;;;;;9.40;3.20;;;0.40;99.90;;;;;;4988733;28;20262;-77
2021/04/07 02:30:13;;;;;;;7.40;2.60;;;0.30;99.90;;;;;;4988393;28;20240;-76
2021/04/07 02:32:39;;;;;;;10.57;3.73;;;-0.50;99.90;;;;;;4988155;28;20557;-75
2021/04/07 02:35:05;;;;;;;6.37;1.40;;;0.30;99.90;;;;;;4988692;28;20282;-75
2021/04/07 02:37:31;;;;;;;4.37;1.83;;;0.30;99.90;;;;;;4988614;28;20189;-75
2021/04/07 02:39:58;;;;;;;7.40;3.00;;;0.40;99.90;;;;;;4988710;28;20184;-75
2021/04/07 02:42:24;;;;;;;9.27;3.40;;;0.50;99.90;;;;;;4972102;28;20180;-76
2021/04/07 02:44:49;;;;;;;9.77;3.43;;;0.40;99.90;;;;;;4988105;28;20207;-76
2021/04/07 02:47:15;;;;;;;14.80;3.27;;;0.50;99.90;;;;;;4988509;28;20192;-76
2021/04/07 02:49:40;;;;;;;7.17;2.53;;;0.50;99.90;;;;;;4988623;28;20704;-78
2021/04/07 02:52:06;;;;;;;10.87;3.10;;;0.60;99.90;;;;;;4988039;28;20191;-76
2021/04/07 02:54:32;;;;;;;12.23;3.27;;;0.60;99.90;;;;;;4988424;28;20196;-76
2021/04/07 02:56:58;;;;;;;8.60;3.10;;;0.60;99.90;;;;;;4972520;28;20171;-77
2021/04/07 02:59:23;;;;;;;9.80;3.37;;;0.60;99.90;;;;;;4973265;28;20544;-77
2021/04/07 03:01:49;;;;;;;7.37;3.13;;;0.60;99.90;;;;;;4987991;28;20186;-75
2021/04/07 03:04:15;;;;;;;9.77;3.50;;;0.40;99.90;;;;;;4971101;28;20210;-76
2021/04/07 03:06:41;;;;;;;6.97;2.90;;;0.50;99.90;;;;;;4988252;28;20181;-76
2021/04/07 03:09:07;;;;;;;6.93;3.30;;;0.40;99.90;;;;;;4988123;28;20218;-76
2021/04/07 03:11:34;;;;;;;8.40;2.70;;;0.40;99.90;;;;;;4988313;28;20176;-75
2021/04/07 03:13:59;;;;;;;7.13;3.20;;;0.40;99.90;;;;;;4987591;28;20196;-75
2021/04/07 03:16:25;;;;;;;7.97;2.83;;;0.50;99.90;;;;;;4971748;28;20206;-76
2021/04/07 03:18:51;;;;;;;7.07;2.43;;;0.50;99.90;;;;;;4971912;28;20183;-76
2021/04/07 03:21:16;;;;;;;9.23;2.73;;;0.50;99.90;;;;;;4988238;28;20183;-76
2021/04/07 03:23:42;;;;;;;7.90;2.80;;;0.50;99.90;;;;;;4987707;28;20184;-77
2021/04/07 03:26:07;;;;;;;10.20;2.70;;;0.60;99.90;;;;;;4988126;28;20191;-75
2021/04/07 03:28:33;;;;;;;10.10;2.73;;;0.50;99.90;;;;;;4987611;28;20207;-77
2021/04/07 03:30:58;;;;;;;8.37;3.10;;;0.50;99.90;;;;;;4971832;28;20183;-76
2021/04/07 03:33:29;;;;;;;8.07;2.57;;;0.60;99.90;;;;;;4971494;28;20324;-76
2021/04/07 03:35:56;;;;;;;3.13;1.17;;;0.70;99.90;;;;;;4988023;28;20183;-76
2021/04/07 03:38:21;;;;;;;8.43;2.23;;;0.70;99.90;;;;;;4987824;28;20702;-76
2021/04/07 03:40:47;;;;;;;7.13;2.50;;;0.70;99.90;;;;;;4987856;28;20298;-77
2021/04/07 03:43:17;;;;;;;7.70;2.67;;;0.80;99.90;;;;;;4971141;28;20233;-75
2021/04/07 03:45:43;;;;;;;7.03;2.33;;;0.70;99.90;;;;;;4987343;28;20235;-75
2021/04/07 03:48:10;;;;;;;8.53;2.43;;;0.70;99.90;;;;;;4987726;28;20187;-76
2021/04/07 03:50:36;;;;;;;9.50;3.10;;;0.80;99.90;;;;;;4971502;28;20183;-77
2021/04/07 03:53:01;;;;;;;6.07;2.83;;;0.90;99.90;;;;;;4972587;28;20195;-76
2021/04/07 03:55:27;;;;;;;5.97;2.70;;;0.40;99.90;;;;;;4987859;28;20197;-77
2021/04/07 03:57:52;;;;;;;6.37;3.30;;;0.80;99.90;;;;;;4987621;28;20559;-77
2021/04/07 04:00:18;;;;;;;6.50;2.60;;;0.90;99.90;;;;;;4987838;28;20199;-76
2021/04/07 04:02:44;;;;;;;7.30;2.67;;;1.00;99.90;;;;;;4987251;28;20180;-76
2021/04/07 04:05:10;;;;;;;8.90;3.27;;;1.00;99.90;;;;;;4972860;28;20209;-76
2021/04/07 04:07:36;;;;;;;11.77;2.90;;;1.00;99.90;;;;;;4987666;28;20223;-76
2021/04/07 04:10:02;;;;;;;11.27;3.10;;;0.40;99.90;;;;;;4987685;28;20251;-77
2021/04/07 04:12:27;;;;;;;4.47;2.27;;;1.00;99.90;;;;;;4971025;28;20184;-76
2021/04/07 04:14:53;;;;;;;6.13;2.50;;;0.90;99.90;;;;;;4972772;28;20206;-76
2021/04/07 04:17:18;;;;;;;8.27;3.07;;;1.00;99.90;;;;;;4991020;28;20251;-77
2021/04/07 04:19:44;;;;;;;10.10;3.30;;;1.10;99.90;;;;;;4976265;28;20796;-77
2021/04/07 04:22:09;;;;;;;7.73;3.23;;;1.10;99.90;;;;;;4990891;28;20267;-76
2021/04/07 04:24:35;;;;;;;10.10;3.23;;;1.10;99.90;;;;;;4990708;28;20249;-76
2021/04/07 04:27:00;;;;;;;10.43;3.30;;;0.10;99.90;;;;;;4990871;28;20190;-76
2021/04/07 04:29:26;;;;;;;7.50;3.40;;;1.00;99.90;;;;;;4974617;28;20207;-76
2021/04/07 04:31:51;;;;;;;10.20;3.50;;;1.10;99.90;;;;;;4974580;28;20179;-77
2021/04/07 04:34:17;;;;;;;7.73;2.93;;;1.10;99.90;;;;;;4990801;28;20200;-75
2021/04/07 04:36:42;;;;;;;9.57;3.60;;;1.10;99.90;;;;;;4990653;28;20254;-76
2021/04/07 04:39:08;;;;;;;10.70;3.53;;;1.20;99.90;;;;;;4974485;28;20184;-77
2021/04/07 04:41:33;;;;;;;7.30;3.87;;;1.10;99.90;;;;;;4990630;28;20179;-76
2021/04/07 04:43:59;;;;;;;8.57;3.10;;;1.20;99.90;;;;;;4990452;28;20554;-76
2021/04/07 04:46:24;;;;;;;7.13;3.20;;;1.20;99.90;;;;;;4973837;28;20188;-75
2021/04/07 04:48:50;;;;;;;6.87;3.27;;;1.20;99.90;;;;;;4973781;28;20263;-76
2021/04/07 04:51:16;;;;;;;8.83;3.53;;;1.20;99.90;;;;;;4975576;28;20218;-76
2021/04/07 04:53:41;;;;;;;6.87;3.07;;;1.20;99.90;;;;;;4974116;28;20257;-76
2021/04/07 04:56:07;;;;;;;8.93;2.67;;;1.20;99.90;;;;;;4974224;28;20519;-76
2021/04/07 04:58:32;;;;;;;6.50;3.13;;;1.10;99.90;;;;;;4958256;28;20241;-78
2021/04/07 05:00:59;;;;;;;9.80;3.00;;;1.10;99.90;;;;;;4957544;28;20222;-76
2021/04/07 05:03:25;;;;;;;11.13;3.30;;;1.10;99.90;;;;;;4974004;28;20185;-76
2021/04/07 05:05:51;;;;;;;8.57;3.20;;;1.50;99.90;;;;;;4974178;28;20267;-75
2021/04/07 05:08:17;;;;;;;11.30;3.53;;;1.20;99.90;;;;;;4954677;29;20824;-75
2021/04/07 05:10:43;;;;;;;7.37;3.80;;;1.30;99.90;;;;;;4971646;28;20181;-75
2021/04/07 05:13:09;;;;;;;6.23;3.03;;;1.10;99.90;;;;;;4957786;28;20264;-76
2021/04/07 05:15:34;;;;;;;8.67;4.17;;;1.20;99.90;;;;;;4957829;28;20283;-76
2021/04/07 05:18:01;;;;;;;9.17;3.67;;;;;;;;;;4973893;28;20183;-75
2021/04/07 05:20:27;;;;;;;6.87;3.83;;;1.20;99.90;;;;;;4957957;28;20249;-75
2021/04/07 05:22:52;;;;;;;10.93;4.33;;;1.20;99.90;;;;;;4974987;28;20190;-74
2021/04/07 05:25:18;;;;;;;7.83;3.30;;;1.20;99.90;;;;;;4957582;28;20223;-75
2021/04/07 05:27:43;;;;;;;10.70;4.40;;;1.20;99.90;;;;;;4956975;28;20201;-75
2021/04/07 05:30:09;;;;;;;6.23;3.23;;;1.30;99.90;;;;;;4973322;28;20218;-74
2021/04/07 05:32:35;;;;;;;8.53;3.80;;;1.20;99.90;;;;;;4997966;22;20220;-73
2021/04/07 05:35:00;;;;;;;9.53;4.50;;;1.20;99.90;;;;;;4985363;28;20217;-73
2021/04/07 05:37:26;;;;;;;8.67;4.80;;;1.30;99.90;;;;;;5003307;28;20173;-73
2021/04/07 05:39:51;;;;;;;10.87;4.53;;;1.20;99.90;;;;;;5001134;28;20267;-73
2021/04/07 05:42:17;;;;;;;5.77;4.47;;;1.10;99.90;;;;;;5004458;28;20192;-73
2021/04/07 05:44:42;;;;;;;8.20;5.23;;;1.10;99.90;;;;;;5003346;28;20583;-75
2021/04/07 05:47:08;;;;;;;10.77;6.67;;;1.10;99.90;;;;;;4987303;28;20201;-73
2021/04/07 05:49:33;;;;;;;10.97;6.13;;;1.20;99.90;;;;;;5000423;28;20212;-74
2021/04/07 05:51:59;;;;;;;13.87;7.63;;;1.10;99.90;;;;;;5002118;28;20246;-74
2021/04/07 05:54:24;;;;;;;10.57;7.33;;;1.10;99.90;;;;;;4995840;28;20216;-74
2021/04/07 05:56:50;;;;;;;12.07;8.50;;;1.20;99.90;;;;;;4993915;28;20198;-71
2021/04/07 05:59:15;;;;;;;14.37;9.43;;;1.20;99.90;;;;;;4993272;28;20211;-70
2021/04/07 06:01:41;;;;;;;13.47;9.17;;;1.20;99.90;;;;;;4992521;28;20248;-74
2021/04/07 06:04:06;;;;;;;15.83;9.57;;;1.20;99.90;;;;;;4959536;28;20177;-70
2021/04/07 06:06:32;;;;;;;17.27;10.87;;;1.30;99.90;;;;;;4996953;28;20192;-70
2021/04/07 06:08:58;;;;;;;15.57;10.20;;;1.20;99.90;;;;;;4976314;28;20341;-71
2021/04/07 06:11:23;;;;;;;13.70;7.63;;;1.20;99.90;;;;;;4976619;28;20188;-71
2021/04/07 06:13:49;;;;;;;15.90;11.63;;;1.20;99.90;;;;;;4961774;28;20187;-71
2021/04/07 06:16:14;;;;;;;14.17;8.23;;;1.10;99.90;;;;;;4995215;28;20175;-71
2021/04/07 06:18:41;;;;;;;18.07;10.43;;;1.10;99.90;;;;;;4994531;28;20203;-72
2021/04/07 06:21:06;;;;;;;29.67;18.97;;;1.10;99.90;;;;;;4994107;28;20184;-71
2021/04/07 06:23:32;;;;;;;21.60;14.17;;;1.10;99.90;;;;;;4959756;28;20182;-71
2021/04/07 06:25:58;;;;;;;28.73;14.60;;;1.20;99.90;;;;;;4991242;28;20181;-71
2021/04/07 06:28:23;;;;;;;23.03;14.00;;;1.30;99.90;;;;;;4991994;28;20251;-71
2021/04/07 06:30:49;;;;;;;80.17;40.47;;;1.40;99.90;;;;;;4977282;28;20179;-72
2021/04/07 06:33:24;;;;;;;56.33;26.87;;;1.40;99.90;;;;;;4993520;28;20241;-71
2021/04/07 06:35:54;;;;;;;83.20;45.57;;;1.40;99.90;;;;;;4993135;28;20538;-71
2021/04/07 06:38:20;;;;;;;16.67;12.40;;;1.30;99.90;;;;;;4993580;28;20187;-72
2021/04/07 06:40:46;;;;;;;21.83;14.90;;;1.30;99.90;;;;;;4993382;28;20182;-71
2021/04/07 06:43:12;;;;;;;25.80;18.13;;;1.20;99.90;;;;;;4993097;28;20255;-70
2021/04/07 06:45:38;;;;;;;17.33;11.70;;;1.30;99.90;;;;;;4994600;28;20195;-71
2021/04/07 06:48:10;;;;;;;25.60;18.13;;;1.20;99.90;;;;;;4994544;28;20171;-71
2021/04/07 06:50:37;;;;;;;27.23;18.23;;;1.30;99.90;;;;;;4960595;28;20183;-72
2021/04/07 06:53:04;;;;;;;28.40;20.83;;;1.30;99.90;;;;;;4992061;28;20206;-72
2021/04/07 06:55:29;;;;;;;25.27;19.13;;;1.30;99.90;;;;;;4960234;28;20181;-71
2021/04/07 06:57:55;;;;;;;31.77;21.30;;;1.30;99.90;;;;;;4976881;28;20240;-71
2021/04/07 07:00:21;;;;;;;34.57;25.13;;;1.40;99.90;;;;;;4977527;28;20186;-71
2021/04/07 07:02:47;;;;;;;27.03;21.53;;;1.30;99.90;;;;;;4992226;28;20205;-73
2021/04/07 07:05:16;;;;;;;17.97;12.90;;;1.40;99.90;;;;;;4975405;28;20205;-72
2021/04/07 07:07:41;;;;;;;21.03;13.73;;;1.50;99.90;;;;;;4991804;28;20229;-72
2021/04/07 07:10:07;;;;;;;13.40;8.50;;;1.40;99.90;;;;;;4991577;28;20622;-72
2021/04/07 07:12:33;;;;;;;11.03;7.07;;;1.50;99.90;;;;;;4992346;28;20206;-71
2021/04/07 07:15:01;;;;;;;18.00;11.13;;;1.40;99.90;;;;;;4992679;28;20186;-71
2021/04/07 07:17:29;;;;;;;22.63;13.47;;;1.50;99.90;;;;;;4975872;28;20229;-72
2021/04/07 07:19:54;;;;;;;15.93;10.90;;;1.40;99.90;;;;;;4975017;28;20563;-72
2021/04/07 07:22:24;;;;;;;15.77;9.57;;;1.60;99.90;;;;;;4975184;28;20206;-72
2021/04/07 07:25:00;;;;;;;21.00;13.63;;;1.50;99.90;;;;;;4975866;28;20324;-73
2021/04/07 07:27:39;;;;;;;22.80;12.43;;;1.50;99.90;;;;;;4959128;28;20185;-72
2021/04/07 07:30:06;;;;;;;13.70;9.13;;;1.70;99.90;;;;;;4991215;28;20293;-73
2021/04/07 07:32:37;;;;;;;10.10;6.97;;;1.70;99.90;;;;;;4975031;28;20220;-75
2021/04/07 07:35:13;;;;;;;11.30;8.27;;;1.70;99.90;;;;;;4975363;28;20645;-71
2021/04/07 07:37:39;;;;;;;10.10;5.77;;;1.70;99.90;;;;;;4992225;28;20325;-71
2021/04/07 07:40:07;;;;;;;7.73;5.13;;;1.80;99.90;;;;;;4991362;28;20834;-74
2021/04/07 07:42:32;;;;;;;21.60;16.13;;;1.80;99.90;;;;;;4959064;28;20207;-73
2021/04/07 07:44:58;;;;;;;16.77;12.33;;;1.80;99.90;;;;;;4974834;28;20183;-72
2021/04/07 07:47:33;;;;;;;11.87;9.07;;;1.80;99.90;;;;;;4992029;28;20183;-72
2021/04/07 07:50:01;;;;;;;13.17;10.10;;;1.80;99.90;;;;;;4992122;28;20204;-73
2021/04/07 07:52:31;;;;;;;16.30;11.50;;;1.70;99.90;;;;;;4995795;28;20335;-72
2021/04/07 07:54:57;;;;;;;18.03;13.13;;;1.90;99.90;;;;;;4994988;28;20178;-75
2021/04/07 07:57:23;;;;;;;18.43;13.53;;;1.90;99.90;;;;;;4994735;28;20512;-74
2021/04/07 07:59:49;;;;;;;23.50;17.80;;;1.90;99.90;;;;;;4978384;28;20660;-73
2021/04/07 08:02:25;;;;;;;11.37;8.20;;;2.00;99.90;;;;;;4994456;28;20201;-72
2021/04/07 08:04:50;;;;;;;12.40;8.03;;;2.00;99.90;;;;;;4979550;28;20181;-74
2021/04/07 08:07:16;;;;;;;13.47;9.83;;;1.90;99.90;;;;;;4978256;28;20183;-73
2021/04/07 08:09:41;;;;;;;15.27;10.87;;;2.00;99.90;;;;;;4978357;28;20213;-74
2021/04/07 08:12:10;;;;;;;28.77;20.93;;;2.20;99.90;;;;;;4995333;28;20206;-72
2021/04/07 08:14:39;;;;;;;9.30;6.80;;;2.30;99.90;;;;;;4978052;28;20719;-73
2021/04/07 08:17:05;;;;;;;11.97;6.40;;;2.40;99.90;;;;;;4994246;28;20641;-75
2021/04/07 08:19:32;;;;;;;7.00;5.80;;;2.50;99.90;;;;;;4978320;28;20257;-74
2021/04/07 08:21:58;;;;;;;8.73;6.27;;;2.50;99.90;;;;;;4976715;28;20215;-73
2021/04/07 08:24:25;;;;;;;16.23;12.43;;;2.50;99.90;;;;;;4977249;28;20187;-74
2021/04/07 08:26:51;;;;;;;12.20;7.90;;;2.70;99.90;;;;;;4996662;28;20187;-80
2021/04/07 08:29:16;;;;;;;15.17;10.43;;;2.60;99.90;;;;;;4978675;28;20207;-77
2021/04/07 08:31:44;;;;;;;12.43;7.97;;;2.90;99.90;;;;;;4974801;28;20241;-78
2021/04/07 08:34:10;;;;;;;22.60;15.03;;;2.80;99.90;;;;;;4988254;28;20655;-78
2021/04/07 08:36:36;;;;;;;7.87;5.23;;;2.80;99.90;;;;;;4991019;28;20600;-74
2021/04/07 08:39:12;;;;;;;9.80;7.37;;;2.90;99.90;;;;;;4967913;28;20241;-75
2021/04/07 08:41:39;;;;;;;56.57;27.80;;;2.80;99.90;;;;;;4971952;28;20202;-74
2021/04/07 08:44:05;;;;;;;35.90;18.27;;;2.70;99.90;;;;;;4991046;28;20289;-75
2021/04/07 08:46:40;;;;;;;31.63;16.37;;;2.60;99.90;;;;;;4978196;28;20682;-76
2021/04/07 08:49:06;;;;;;;11.17;7.33;;;2.70;99.90;;;;;;4993264;28;20583;-75
2021/04/07 08:51:33;;;;;;;33.07;16.27;;;2.60;99.90;;;;;;4977176;28;20218;-77
2021/04/07 08:53:58;;;;;;;57.20;26.33;;;2.80;99.90;;;;;;4994295;28;20185;-74
2021/04/07 08:56:29;;;;;;;21.17;10.43;;;2.70;99.90;;;;;;4993799;28;20174;-77
2021/04/07 08:58:55;;;;;;;35.27;29.60;;;2.70;99.90;;;;;;4993647;28;20168;-74
2021/04/07 09:01:22;;;;;;;17.90;14.70;;;2.70;99.90;;;;;;4992895;28;20185;-74
2021/04/07 09:03:47;;;;;;;8.80;7.73;;;2.90;99.90;;;;;;4992872;28;20175;-75
2021/04/07 09:06:13;;;;;;;5.90;4.83;;;2.90;99.90;;;;;;4993464;28;20573;-75
2021/04/07 09:08:39;;;;;;;7.20;5.60;;;2.80;99.90;;;;;;4993599;28;20207;-77
2021/04/07 09:11:04;;;;;;;6.47;5.40;;;2.90;99.90;;;;;;4977140;28;20180;-76
2021/04/07 09:13:32;;;;;;;17.60;15.03;;;2.90;99.90;;;;;;4993318;28;20654;-78
2021/04/07 09:16:03;;;;;;;8.83;6.90;;;3.00;99.90;;;;;;4993456;28;20262;-75
2021/04/07 09:18:48;;;;;;;13.80;8.90;;;3.20;99.90;;;;;;4993481;28;20186;-76
2021/04/07 09:21:17;;;;;;;16.90;12.20;;;3.50;99.90;;;;;;4993270;28;20183;-78
2021/04/07 09:23:49;;;;;;;8.37;6.90;;;3.60;99.90;;;;;;4994238;28;20182;-78
2021/04/07 09:26:17;;;;;;;12.17;9.40;;;3.80;99.90;;;;;;4993885;28;20175;-79
2021/04/07 09:28:44;;;;;;;13.17;10.70;;;3.80;99.90;;;;;;4993319;28;20576;-78
2021/04/07 09:31:12;;;;;;;9.23;6.53;;;3.90;99.90;;;;;;4993095;28;20237;-78
2021/04/07 09:33:39;;;;;;;9.97;7.63;;;4.20;99.90;;;;;;4992795;28;20250;-77
2021/04/07 09:36:04;;;;;;;7.57;5.37;;;4.50;99.90;;;;;;4993010;28;20182;-79
2021/04/07 09:38:30;;;;;;;15.07;10.87;;;5.30;99.90;;;;;;4976532;28;20628;-77
2021/04/07 09:41:03;;;;;;;14.43;9.43;;;6.40;99.90;;;;;;4992960;28;20180;-78
2021/04/07 09:43:30;;;;;;;21.03;13.27;;;6.20;99.90;;;;;;4992473;28;20254;-77
2021/04/07 09:45:56;;;;;;;17.63;12.47;;;6.40;99.90;;;;;;4992914;28;20232;-76
2021/04/07 09:48:21;;;;;;;19.50;15.00;;;7.00;99.90;;;;;;4992644;28;20590;-78
2021/04/07 09:50:47;;;;;;;14.87;10.37;;;7.40;99.90;;;;;;4992793;28;20643;-76
2021/04/07 09:53:26;;;;;;;12.60;10.83;;;7.60;99.90;;;;;;4975986;28;20198;-77
2021/04/07 09:55:59;;;;;;;12.03;7.80;;;7.20;99.90;;;;;;4992643;28;20168;-75
2021/04/07 09:58:25;;;;;;;36.67;26.47;;;7.50;99.90;;;;;;4992428;28;20230;-74
2021/04/07 10:00:51;;;;;;;23.27;15.43;;;7.70;99.90;;;;;;4992045;28;20184;-73
2021/04/07 10:03:16;;;;;;;6.07;5.10;;;7.60;99.90;;;;;;4991654;28;20274;-73
2021/04/07 10:05:42;;;;;;;8.70;6.77;;;7.00;99.90;;;;;;4990462;28;20178;-76
2021/04/07 10:08:20;;;;;;;12.03;6.40;;;6.60;99.90;;;;;;4990374;28;20190;-76
2021/04/07 10:10:45;;;;;;;10.03;6.20;;;6.50;99.90;;;;;;4990307;28;20183;-76
2021/04/07 10:13:11;;;;;;;24.37;17.73;;;6.80;99.90;;;;;;4972998;28;20203;-75
2021/04/07 10:15:38;;;;;;;9.70;6.87;;;;;;;;;;4990328;28;20220;-76
2021/04/07 10:18:10;;;;;;;17.00;12.37;;;7.30;99.90;;;;;;4993190;28;20223;-76
2021/04/07 10:20:37;;;;;;;40.67;28.23;;;7.70;99.90;;;;;;4992279;28;20714;-76
2021/04/07 10:23:09;;;;;;;8.60;6.00;;;7.90;99.90;;;;;;4992759;28;20369;-76
2021/04/07 10:25:36;;;;;;;10.30;5.33;;;;;;;;;;4992135;28;20231;-77
2021/04/07 10:28:03;;;;;;;10.53;6.93;;;7.20;99.90;;;;;;4991910;28;20176;-76
2021/04/07 10:30:35;;;;;;;9.83;3.60;;;7.30;99.90;;;;;;4992214;28;20570;-76
2021/04/07 10:33:01;;;;;;;8.07;4.03;;;7.20;99.90;;;;;;4976435;28;20646;-74
2021/04/07 10:35:28;;;;;;;10.50;4.43;;;7.30;99.90;;;;;;4991709;28;20176;-76
2021/04/07 10:37:54;;;;;;;9.63;6.60;;;7.20;99.90;;;;;;4992859;28;20215;-75
2021/04/07 10:40:23;;;;;;;8.53;4.27;;;7.30;99.90;;;;;;4991876;28;20184;-75
2021/04/07 10:42:49;;;;;;;6.00;3.10;;;7.10;99.90;;;;;;4991300;28;20188;-75
2021/04/07 10:45:18;;;;;;;10.73;5.23;;;;;;;;;;4991889;28;20600;-76
2021/04/07 10:47:43;;;;;;;8.33;5.20;;;6.70;99.90;;;;;;4991795;28;20185;-77
2021/04/07 10:50:09;;;;;;;9.10;5.00;;;6.20;99.90;;;;;;4991454;28;20663;-78
2021/04/07 10:52:42;;;;;;;7.23;5.23;;;5.70;99.90;;;;;;4975184;28;20229;-79
2021/04/07 10:55:09;;;;;;;11.27;7.87;;;5.60;99.90;;;;;;4991328;28;20174;-79
2021/04/07 10:57:37;;;;;;;6.47;3.50;;;5.20;99.90;;;;;;4991449;28;20187;-78
2021/04/07 11:00:10;;;;;;;9.63;6.50;;;5.60;99.90;;;;;;4991806;28;20186;-79
2021/04/07 11:02:43;;;;;;;8.10;4.73;;;5.60;99.90;;;;;;4975110;28;20257;-78
2021/04/07 11:05:16;;;;;;;9.03;5.37;;;5.70;99.90;;;;;;4991655;28;20172;-81
2021/04/07 11:07:42;;;;;;;12.47;9.13;;;5.70;99.90;;;;;;4991189;28;20187;-79
2021/04/07 11:10:09;;;;;;;5.97;4.70;;;5.90;99.90;;;;;;4991930;28;20215;-79
2021/04/07 11:12:35;;;;;;;11.50;9.30;;;5.70;99.90;;;;;;4959928;28;20197;-80
2021/04/07 11:15:07;;;;;;;9.83;4.43;;;5.50;99.90;;;;;;4959038;28;20275;-78
2021/04/07 11:17:33;;;;;;;4.07;1.77;;;5.20;99.90;;;;;;4976163;28;20640;-79
2021/04/07 11:19:58;;;;;;;8.63;4.37;;;4.80;99.90;;;;;;4976235;28;20182;-80
2021/04/07 11:22:24;;;;;;;13.47;7.93;;;4.40;99.90;;;;;;4991567;28;20661;-79
2021/04/07 11:24:50;;;;;;;17.30;9.63;;;4.10;99.90;;;;;;4991511;28;20739;-81
2021/04/07 11:27:15;;;;;;;3.23;1.50;;;4.20;99.90;;;;;;4995684;28;20213;-77
2021/04/07 11:29:41;;;;;;;10.67;5.47;;;4.20;99.90;;;;;;4996585;28;20201;-78
2021/04/07 11:32:08;;;;;;;9.73;7.10;;;4.50;99.90;;;;;;4979913;28;20219;-80
2021/04/07 11:34:39;;;;;;;2.07;1.03;;;4.70;99.90;;;;;;4979825;28;20183;-81
2021/04/07 11:40:01;;;;;;;9.33;5.50;;;4.50;99.90;;;;;;4978395;28;20223;-83
2021/04/07 11:42:43;;;;;;;4.77;3.27;;;4.60;99.90;;;;;;4949406;28;20518;-79
2021/04/07 11:45:09;;;;;;;17.23;10.27;;;4.20;99.90;;;;;;4948354;28;20168;-78
2021/04/07 11:47:35;;;;;;;13.50;8.23;;;4.00;99.90;;;;;;4959997;28;20235;-78
2021/04/07 11:50:02;;;;;;;2.90;1.30;;;4.00;99.90;;;;;;4960385;28;20264;-79
2021/04/07 11:52:31;;;;;;;9.33;4.10;;;4.00;99.90;;;;;;4960990;28;20180;-79
2021/04/07 11:54:57;;;;;;;10.50;4.03;;;4.00;99.90;;;;;;4960669;28;20169;-80
2021/04/07 11:57:22;;;;;;;8.17;2.60;;;4.20;99.90;;;;;;4960194;28;20188;-79
2021/04/07 11:59:48;;;;;;;5.47;1.47;;;4.40;99.90;;;;;;4960380;28;20179;-80
2021/04/07 12:02:13;;;;;;;8.60;1.77;;;4.70;99.90;;;;;;4977169;28;20188;-79
2021/04/07 12:04:39;;;;;;;4.30;1.33;;;4.90;99.90;;;;;;4960912;28;20191;-81
2021/04/07 12:07:04;;;;;;;5.13;1.07;;;4.80;99.90;;;;;;4961207;28;20191;-80
2021/04/07 12:09:30;;;;;;;7.43;1.20;;;5.00;99.90;;;;;;4959476;28;20208;-79
2021/04/07 12:11:55;;;;;;;6.73;1.40;;;5.10;99.90;;;;;;4960134;28;20223;-79
2021/04/07 12:14:21;;;;;;;5.93;1.50;;;5.00;99.90;;;;;;4943706;28;20640;-80
2021/04/07 12:16:47;;;;;;;6.13;1.63;;;5.00;99.90;;;;;;4941299;29;20649;-81
2021/04/07 12:19:12;;;;;;;9.63;1.47;;;5.40;99.90;;;;;;4925541;29;20333;-79
2021/04/07 12:21:39;;;;;;;8.03;1.47;;;5.70;99.90;;;;;;4925887;29;20269;-82
2021/04/07 12:24:05;;;;;;;7.43;1.77;;;6.10;99.90;;;;;;4943742;29;20527;-79
2021/04/07 12:26:31;;;;;;;5.47;1.70;;;6.10;99.90;;;;;;4929476;29;20695;-86
2021/04/07 12:28:57;;;;;;;4.73;1.50;;;6.10;99.90;;;;;;4927613;29;20220;-84
2021/04/07 12:31:22;;;;;;;7.27;1.83;;;6.20;99.90;;;;;;4959942;28;20272;-82
2021/04/07 12:33:52;;;;;;;9.20;1.70;;;6.00;99.90;;;;;;4928283;29;20249;-82
2021/04/07 12:36:17;;;;;;;7.07;2.03;;;6.00;99.90;;;;;;4928915;29;20201;-84
2021/04/07 12:38:43;;;;;;;6.57;1.70;;;5.70;99.90;;;;;;4925429;29;20704;-81
2021/04/07 12:41:55;;;;;;;10.87;1.60;;;5.70;99.90;;;;;;4941764;29;20174;-83
2021/04/07 12:43:58;;;;;;;8.43;1.70;;;5.70;99.90;;;;;;4953959;28;20193;-82
2021/04/07 12:46:24;;;;;;;5.30;1.10;;;5.70;99.90;;;;;;4951779;28;20601;-86
2021/04/07 12:48:51;;;;;;;5.83;1.43;;;5.80;99.90;;;;;;4962959;28;20201;-86
2021/04/07 12:51:18;;;;;;;3.97;1.23;;;5.90;99.90;;;;;;4947516;28;20177;-87
2021/04/07 12:53:43;;;;;;;5.80;1.57;;;6.20;99.90;;;;;;4947759;28;20177;-85